Flight Track Log - Related Links

Times and Time Zones

All times are in EDT time to prevent confusion due to time zone crossing. See the UAL363 flight status page for this flight to view local times or setup timezone preferences in your user account.

Time Position Orientation Groundspeed Altitude Reporting Facility
EDT Latitude Longitude Course Direction KTS MPH feet Rate Location/Type
Sun 08:08:25 PM 26.0739 -80.1828 342° North 164 189 1,100  Level Miami Center
Sun 08:09:02 PM 26.0731 -80.2175 268° West 204 235 1,900 2,265 Climbing Miami Center
Sun 08:10:03 PM 26.0864 -80.2803 283° West 236 272 4,800 2,508 Climbing Miami Center
Sun 08:11:00 PM 26.2265 -80.1315 279° West  Level FlightAware Approximate
Sun 08:11:04 PM 26.1611 -80.3011 346° North 278 320 7,000  Level Miami Center
Sun 08:12:00 PM 26.2892 -80.2531 312° West  Level FlightAware Approximate
Sun 08:12:10 PM 26.2358 -80.3172 349° North 286 329 9,000  Level Miami Center
Sun 08:13:00 PM 26.3859 -80.3509 342° North  Level FlightAware Approximate
Sun 08:13:10 PM 26.3125 -80.3425 344° North 280 322 11,700  Level Miami Center
Sun 08:14:10 PM 26.4161 -80.3733 345° North 323 372 12,400 1,200 Climbing Miami Center
Sun 08:15:10 PM 26.5117 -80.3994 346° North 378 435 14,100 2,100 Climbing Miami Center
Sun 08:16:10 PM 26.6339 -80.4356 345° North 401 461 16,600 2,050 Climbing Miami Center
Sun 08:17:10 PM 26.7333 -80.4689 343° North 410 472 18,200 1,700 Climbing Miami Center
Sun 08:18:10 PM 26.8639 -80.5147 343° North 423 487 20,000 1,600 Climbing Miami Center
Sun 08:19:10 PM 26.9861 -80.5514 345° North 436 502 21,400 1,400 Climbing Miami Center
Sun 08:20:10 PM 27.1081 -80.5925 343° North 441 507 22,800 1,400 Climbing Miami Center
Sun 08:21:10 PM 27.2303 -80.6314 344° North 454 522 24,200 1,250 Climbing Miami Center
Sun 08:22:10 PM 27.3608 -80.6731 344° North 459 528 25,300 1,050 Climbing Miami Center
Sun 08:23:10 PM 27.4600 -80.7069 343° North 465 535 26,300 1,250 Climbing Miami Center
Sun 08:24:10 PM 27.6111 -80.7564 344° North 470 541 27,800 1,400 Climbing Miami Center
Sun 08:25:10 PM 27.7353 -80.7936 345° North 470 541 29,100 1,350 Climbing Miami Center
Sun 08:26:10 PM 27.8697 -80.8381 344° North 475 547 30,500 1,400 Climbing Miami Center
Sun 08:27:10 PM 27.9919 -80.8775 344° North 475 547 31,900 1,350 Climbing Miami Center
Sun 08:28:10 PM 28.1158 -80.9197 343° North 470 541 33,200 1,100 Climbing Miami Center
Sun 08:29:10 PM 28.2381 -80.9572 345° North 462 532 34,100 969 Climbing Miami Center
Sun 08:30:51 PM 28.4453 -81.0322 342° North 459 528 35,800 894 Climbing Jacksonville Center
Sun 08:31:51 PM 28.5689 -81.0725 344° North 464 534 36,500 550 Climbing Jacksonville Center
Sun 08:32:51 PM 28.6906 -81.1128 344° North 459 528 36,900 200 Climbing Jacksonville Center
Sun 08:33:51 PM 28.8142 -81.1439 348° North 454 522 36,900  Level Jacksonville Center
Sun 08:34:51 PM 28.9378 -81.1725 349° North 454 522 36,900 50 Level Jacksonville Center
Sun 08:35:51 PM 29.0656 -81.2036 348° North 447 514 37,000  Climbing Jacksonville Center
Sun 08:36:51 PM 29.1911 -81.2347 348° North 452 520 36,900 -50 Descending Jacksonville Center
Sun 08:37:51 PM 29.3125 -81.2636 348° North 452 520 36,900  Level Jacksonville Center
Sun 08:38:51 PM 29.4361 -81.2925 348° North 452 520 36,900  Level Jacksonville Center
Sun 08:39:51 PM 29.5575 -81.3239 347° North 452 520 36,900 50 Level Jacksonville Center
Sun 08:40:51 PM 29.6853 -81.3531 349° North 452 520 37,000 50 Climbing Jacksonville Center
Sun 08:41:51 PM 29.7856 -81.3778 348° North 452 520 37,000  Level Jacksonville Center
Sun 08:42:51 PM 29.9386 -81.4136 349° North 452 520 37,000  Level Jacksonville Center
Sun 08:43:51 PM 30.0661 -81.4453 348° North 452 520 37,000  Level Jacksonville Center
Sun 08:44:51 PM 30.1939 -81.4747 349° North 452 520 37,000  Level Jacksonville Center
Sun 08:45:51 PM 30.3236 -81.5017 350° North 452 520 37,000  Level Jacksonville Center
Sun 08:46:51 PM 30.4572 -81.4997 North 464 534 37,000  Level Jacksonville Center
Sun 08:47:51 PM 30.5908 -81.4906 North 469 540 37,000  Level Jacksonville Center
Sun 08:48:51 PM 30.7222 -81.4789 North 474 545 37,000  Level Jacksonville Center
Sun 08:49:51 PM 30.8558 -81.4697 North 479 551 37,000  Level Jacksonville Center
Sun 08:50:51 PM 30.9872 -81.4603 North 479 551 37,000  Level Jacksonville Center
Sun 08:51:51 PM 31.1206 -81.4486 North 479 551 37,000  Level Jacksonville Center
Sun 08:52:51 PM 31.2561 -81.4344 North 479 551 37,000  Level Jacksonville Center
Sun 08:53:51 PM 31.3872 -81.4008 12° North 479 551 37,000  Level Jacksonville Center
Sun 08:54:51 PM 31.5061 -81.3694 13° North 486 559 37,000  Level Jacksonville Center
Sun 08:55:51 PM 31.6431 -81.2992 24° Northeast 491 565 37,000  Level Jacksonville Center
Sun 08:56:51 PM 31.7672 -81.2236 27° Northeast 484 557 37,000 -50 Level Jacksonville Center
Sun 08:57:51 PM 31.8914 -81.1481 27° Northeast 489 563 36,900 -50 Descending Jacksonville Center
Sun 08:58:51 PM 32.0011 -81.0797 28° Northeast 496 571 36,900 50 Level Jacksonville Center
Sun 08:59:51 PM 32.1253 -81.0011 28° Northeast 490 564 37,000 50 Climbing Jacksonville Center
Sun 09:00:51 PM 32.2617 -80.9172 27° Northeast 490 564 37,000  Level Jacksonville Center
Sun 09:01:51 PM 32.3733 -80.8486 27° Northeast 485 558 37,000 -50 Level Jacksonville Center
Sun 09:02:51 PM 32.4933 -80.7719 28° Northeast 485 558 36,900 -50 Descending Jacksonville Center
Sun 09:03:51 PM 32.6192 -80.6950 27° Northeast 485 558 36,900  Level Jacksonville Center
Sun 09:04:51 PM 32.7389 -80.6181 28° Northeast 485 558 36,900  Level Jacksonville Center
Sun 09:05:51 PM 32.8647 -80.5381 28° Northeast 485 558 36,900  Level Jacksonville Center
Sun 09:06:51 PM 32.9867 -80.4656 27° Northeast 485 558 36,900 50 Level Jacksonville Center
Sun 09:07:51 PM 33.1186 -80.3778 29° Northeast 512 589 37,000  Climbing Jacksonville Center
Sun 09:08:51 PM 33.2381 -80.3072 26° Northeast 500 575 36,900 -50 Descending Jacksonville Center
Sun 09:09:51 PM 33.3617 -80.2267 29° Northeast 500 575 36,900  Level Jacksonville Center
Sun 09:10:51 PM 33.4811 -80.1483 29° Northeast 493 567 36,900  Level Jacksonville Center
Sun 09:11:51 PM 33.6003 -80.0697 29° Northeast 493 567 36,900  Level Jacksonville Center
Sun 09:12:51 PM 33.7217 -79.9911 28° Northeast 493 567 36,900  Level Jacksonville Center
Sun 09:13:51 PM 33.8431 -79.9144 28° Northeast 487 560 36,900 50 Level Jacksonville Center
Sun 09:14:51 PM 33.9642 -79.8353 28° Northeast 487 560 37,000 50 Climbing Jacksonville Center
Sun 09:15:51 PM 34.0853 -79.7558 29° Northeast 487 560 37,000  Level Jacksonville Center
Sun 09:17:25 PM 34.2744 -79.6356 28° Northeast 501 577 37,000  Level Washington Center
Sun 09:18:27 PM 34.4000 -79.5686 24° Northeast 501 577 37,000  Level Washington Center
Sun 09:19:26 PM 34.5292 -79.5069 21° North 490 564 37,000  Level Washington Center
Sun 09:20:25 PM 34.6544 -79.4372 25° Northeast 490 564 37,000  Level Washington Center
Sun 09:21:27 PM 34.7819 -79.3697 23° Northeast 490 564 37,000  Level Washington Center
Sun 09:22:26 PM 34.9069 -79.3047 23° Northeast 490 564 37,000  Level Washington Center
Sun 09:23:26 PM 35.0322 -79.2369 24° Northeast 490 564 37,000  Level Washington Center
Sun 09:24:27 PM 35.1617 -79.1692 23° Northeast 490 564 37,000  Level Washington Center
Sun 09:25:25 PM 35.2844 -79.1033 24° Northeast 485 558 37,000  Level Washington Center
Sun 09:26:25 PM 35.4117 -79.0375 23° Northeast 485 558 37,000  Level Washington Center
Sun 09:27:26 PM 35.5367 -78.9714 23° Northeast 485 558 37,000  Level Washington Center
Sun 09:28:27 PM 35.6639 -78.9028 24° Northeast 485 558 37,000  Level Washington Center
Sun 09:29:26 PM 35.7844 -78.8361 24° Northeast 485 558 37,000 -300 Level Washington Center
Sun 09:30:27 PM 35.9181 -78.7619 24° Northeast 480 552 36,400 -793 Descending Washington Center
Sun 09:31:27 PM 36.0408 -78.6950 24° Northeast 480 552 35,400 -1,000 Descending Washington Center
Sun 09:32:27 PM 36.1658 -78.6228 25° Northeast 480 552 34,400 -966 Descending Washington Center
Sun 09:33:25 PM 36.2886 -78.5528 25° Northeast 480 552 33,500 -958 Descending Washington Center
Sun 09:34:26 PM 36.4092 -78.4825 25° Northeast 480 552 32,500 -992 Descending Washington Center
Sun 09:35:26 PM 36.5317 -78.4147 24° Northeast 480 552 31,500 -942 Descending Washington Center
Sun 09:36:27 PM 36.6567 -78.3417 25° Northeast 480 552 30,600 -1,008 Descending Washington Center
Sun 09:37:25 PM 36.7792 -78.2706 25° Northeast 480 552 29,500 -1,050 Descending Washington Center
Sun 09:38:27 PM 36.8997 -78.1994 25° Northeast 480 552 28,500 -950 Descending Washington Center
Sun 09:39:25 PM 37.0222 -78.1283 25° Northeast 480 552 27,600 -900 Descending Washington Center
Sun 09:40:27 PM 37.1425 -78.0567 25° Northeast 480 552 26,700 -1,377 Descending Washington Center
Sun 09:41:27 PM 37.2631 -77.9850 25° Northeast 475 547 24,800 -1,932 Descending Washington Center
Sun 09:42:25 PM 37.3789 -77.9181 25° Northeast 464 534 22,900 -2,017 Descending Washington Center
Sun 09:43:26 PM 37.4931 -77.8508 25° Northeast 459 528 20,800 -2,118 Descending Washington Center
Sun 09:44:24 PM 37.6025 -77.7858 25° Northeast 447 514 18,700 -1,950 Descending Washington Center
Sun 09:45:26 PM 37.7122 -77.7233 24° Northeast 436 502 16,900 -1,835 Descending Washington Center
Sun 09:46:25 PM 37.8156 -77.6631 25° Northeast 422 486 15,000 -1,916 Descending Washington Center
Sun 09:47:25 PM 37.9167 -77.6000 26° Northeast 405 466 13,100 -1,785 Descending Washington Center
Sun 09:48:26 PM 38.0156 -77.5422 25° Northeast 398 458 11,400 -1,426 Descending Washington Center
Sun 09:49:27 PM 38.1019 -77.4969 22° Northeast 388 447 10,200 -756 Descending Washington Center
Sun 09:50:25 PM 38.1881 -77.4464 25° Northeast 360 414 9,900 -756 Descending Washington Center
Sun 09:51:26 PM 38.2697 -77.4297 North 318 366 8,700 -1,289 Descending Washington Center
Sun 09:52:26 PM 38.3492 -77.4133 North 295 339 7,300 -1,339 Descending Washington Center
Sun 09:53:27 PM 38.4267 -77.3992 North 282 325 6,000 -1,513 Descending Washington Center
Sun 09:54:25 PM 38.5103 -77.3825 North 277 319 4,300 -1,008 Descending Washington Center
Sun 09:55:26 PM 38.5856 -77.3686 North 277 319 4,000 -149 Descending Washington Center
Sun 09:56:26 PM 38.6606 -77.3650 North 277 319 4,000  Level Washington Center
Sun 09:57:27 PM 38.7356 -77.3614 North 277 319 4,000  Level Washington Center
Sun 09:58:28 PM 38.8167 -77.3500 North 269 310 4,000 -286 Level Potomac TRACON
Sun 09:59:33 PM 38.8833 -77.3500 360° North 265 305 3,400 -480 Descending Potomac TRACON
Sun 10:00:33 PM 38.9500 -77.3500 360° North 253 291 3,000 -250 Descending Potomac TRACON
Sun 10:01:33 PM 39.0167 -77.3500 360° North 217 250 2,900 -632 Descending Potomac TRACON
Sun 10:02:27 PM 39.0500 -77.4000 311° West 218 251 1,800 -750 Descending Potomac TRACON
Sun 10:03:33 PM 39.0333 -77.4667 252° West 190 219 1,400 -364 Descending Potomac TRACON

Login

Don't have an account? Register now (free) for customized features, flight alerts, and more!